| time (UTC) | temp C | wind direction | speed KPH | gust KPH | rain 1hr cm | rain 24hr cm | rain mn cm | humidity % | barometer mb |
| 20260508165202 | 8 | 23 | 12.9 | 35.4 | 0.00 | 0.86 | 0.86 | 98 | 997.3 |
| 20260508164652 | 8 | 45 | 16.1 | 35.4 | 0.00 | 0.86 | 0.86 | 98 | 997.0 |
| 20260508164141 | 8 | 45 | 12.9 | 32.2 | 0.00 | 0.86 | 0.86 | 98 | 997.1 |
| 20260508163631 | 9 | 23 | 8.0 | 32.2 | 0.00 | 0.86 | 0.86 | 98 | 997.1 |
| 20260508163121 | 9 | 23 | 14.5 | 35.4 | 0.00 | 0.86 | 0.86 | 98 | 997.1 |
| 20260508162611 | 9 | 68 | 11.3 | 35.4 | 0.00 | 0.86 | 0.86 | 98 | 997.2 |
| 20260508162115 | 9 | 23 | 16.1 | 35.4 | 0.00 | 0.86 | 0.86 | 99 | 997.0 |
| 20260508161603 | 9 | 45 | 17.7 | 35.4 | 0.00 | 0.86 | 0.86 | 98 | 997.1 |
| 20260508161051 | 9 | 45 | 14.5 | 27.4 | 0.00 | 0.86 | 0.86 | 99 | 997.0 |
| 20260508160539 | 9 | 45 | 12.9 | 32.2 | 0.00 | 0.86 | 0.86 | 99 | 997.0 |
| 20260508160028 | 9 | 23 | 16.1 | 32.2 | 0.00 | 0.86 | 0.86 | 99 | 997.0 |
| 20260508155515 | 9 | 315 | 11.3 | 29.0 | 0.00 | 0.86 | 0.86 | 99 | 996.9 |
| 20260508155003 | 9 | 23 | 17.7 | 32.2 | 0.00 | 0.86 | 0.86 | 99 | 997.0 |
| 20260508154453 | 9 | 68 | 12.9 | 32.2 | 0.00 | 0.86 | 0.86 | 99 | 996.9 |
| 20260508153429 | 9 | 338 | 12.9 | 33.8 | 0.03 | 0.86 | 0.86 | 99 | 996.6 |
| 20260508152920 | 9 | 0 | 9.7 | 29.0 | 0.03 | 0.86 | 0.86 | 99 | 996.8 |
| 20260508152410 | 9 | 68 | 6.4 | 29.0 | 0.03 | 0.86 | 0.86 | 99 | 996.8 |
| 20260508151858 | 9 | 23 | 9.7 | 27.4 | 0.03 | 0.86 | 0.86 | 99 | 997.0 |
| 20260508151349 | 9 | 45 | 11.3 | 29.0 | 0.03 | 0.86 | 0.86 | 99 | 996.7 |
| 20260508150839 | 9 | 23 | 16.1 | 32.2 | 0.03 | 0.86 | 0.86 | 99 | 996.8 |
| 20260508150330 | 9 | 45 | 12.9 | 32.2 | 0.03 | 0.86 | 0.86 | 99 | 996.8 |
| 20260508145820 | 9 | 23 | 12.9 | 27.4 | 0.03 | 0.86 | 0.86 | 99 | 996.8 |
| 20260508145309 | 9 | 45 | 14.5 | 29.0 | 0.03 | 0.86 | 0.86 | 99 | 996.9 |
| 20260508144813 | 9 | 315 | 12.9 | 29.0 | 0.03 | 0.86 | 0.86 | 99 | 996.8 |
| 20260508143750 | 9 | 338 | 14.5 | 33.8 | 0.00 | 0.84 | 0.84 | 99 | 996.8 |
| 20260508143236 | 9 | 315 | 14.5 | 32.2 | 0.00 | 0.84 | 0.84 | 99 | 996.9 |
| 20260508142724 | 9 | 68 | 12.9 | 29.0 | 0.00 | 0.84 | 0.84 | 99 | 996.7 |
| 20260508142221 | 9 | 338 | 9.7 | 20.9 | 0.00 | 0.84 | 0.84 | 99 | 996.6 |
| 20260508141701 | 9 | 338 | 11.3 | 24.1 | 0.00 | 0.84 | 0.84 | 99 | 996.8 |
| 20260508141150 | 9 | 23 | 6.4 | 32.2 | 0.00 | 0.84 | 0.84 | 99 | 996.9 |
| 20260508140637 | 9 | 45 | 6.4 | 32.2 | 0.03 | 0.84 | 0.84 | 99 | 996.7 |
| 20260508140128 | 9 | 23 | 9.7 | 22.5 | 0.03 | 0.84 | 0.84 | 99 | 996.7 |
| 20260508135108 | 9 | 45 | 8.0 | 24.1 | 0.03 | 0.84 | 0.84 | 99 | 996.7 |
| 20260508134557 | 9 | 68 | 6.4 | 29.0 | 0.03 | 0.84 | 0.84 | 99 | 996.7 |
| 20260508134047 | 9 | 45 | 12.9 | 29.0 | 0.03 | 0.84 | 0.84 | 99 | 996.7 |
| 20260508133538 | 9 | 0 | 6.4 | 24.1 | 0.03 | 0.84 | 0.84 | 99 | 996.7 |
| 20260508132516 | 9 | 90 | 8.0 | 22.5 | 0.05 | 0.84 | 0.84 | 99 | 996.7 |
| 20260508132011 | 9 | 315 | 8.0 | 25.7 | 0.05 | 0.84 | 0.84 | 99 | 996.5 |
| 20260508131459 | 9 | 45 | 8.0 | 25.7 | 0.10 | 0.84 | 0.84 | 99 | 996.5 |
| 20260508130436 | 9 | 45 | 11.3 | 24.1 | 0.10 | 0.81 | 0.81 | 99 | 996.3 |
| 20260508125927 | 9 | 45 | 12.9 | 20.9 | 0.13 | 0.81 | 0.81 | 99 | 996.5 |
| 20260508125416 | 9 | 68 | 3.2 | 24.1 | 0.13 | 0.81 | 0.81 | 99 | 996.2 |
| 20260508124905 | 9 | 45 | 12.9 | 24.1 | 0.15 | 0.81 | 0.81 | 99 | 996.1 |
| 20260508124356 | 9 | 23 | 6.4 | 24.1 | 0.20 | 0.81 | 0.81 | 99 | 996.4 |
| 20260508123846 | 9 | 0 | 6.4 | 22.5 | 0.28 | 0.81 | 0.81 | 99 | 996.3 |
| 20260508123337 | 8 | 90 | 6.4 | 22.5 | 0.30 | 0.79 | 0.79 | 99 | 996.3 |
| 20260508122315 | 8 | 0 | 6.4 | 22.5 | 0.36 | 0.79 | 0.79 | 99 | 996.0 |
| 20260508121805 | 8 | 23 | 4.8 | 24.1 | 0.38 | 0.76 | 0.76 | 99 | 996.3 |
| 20260508121255 | 8 | 0 | 6.4 | 29.0 | 0.46 | 0.76 | 0.76 | 99 | 996.1 |
| 20260508120745 | 8 | 0 | 6.4 | 29.0 | 0.46 | 0.71 | 0.71 | 99 | 996.1 |
| 20260508120235 | 8 | 338 | 6.4 | 24.1 | 0.46 | 0.69 | 0.69 | 99 | 996.0 |
| 20260508115726 | 8 | 45 | 11.3 | 24.1 | 0.48 | 0.69 | 0.69 | 99 | 996.1 |
| 20260508115215 | 8 | 338 | 12.9 | 24.1 | 0.48 | 0.69 | 0.69 | 99 | 995.7 |
| 20260508114156 | 8 | 23 | 9.7 | 35.4 | 0.48 | 0.56 | 0.56 | 98 | 995.7 |
| 20260508113134 | 8 | 0 | 11.3 | 25.7 | 0.46 | 0.48 | 0.48 | 98 | 995.7 |
| 20260508112625 | 8 | 45 | 6.4 | 24.1 | 0.38 | 0.43 | 0.46 | 98 | 995.7 |
| 20260508111605 | 8 | 0 | 11.3 | 25.7 | 0.33 | 0.36 | 0.36 | 98 | 995.6 |
| 20260508111053 | 8 | 45 | 11.3 | 25.7 | 0.28 | 0.30 | 0.30 | 98 | 995.5 |
| 20260508110543 | 8 | 45 | 9.7 | 25.7 | 0.20 | 0.23 | 0.23 | 98 | 995.3 |
| 20260508105523 | 8 | 338 | 12.9 | 25.7 | 0.18 | 0.20 | 0.20 | 97 | 995.4 |
| 20260508105014 | 9 | 23 | 9.7 | 32.2 | 0.15 | 0.18 | 0.18 | 97 | 995.2 |
| 20260508104504 | 9 | 23 | 12.9 | 32.2 | 0.10 | 0.13 | 0.13 | 97 | 995.2 |
| 20260508103954 | 9 | 338 | 11.3 | 27.4 | 0.03 | 0.05 | 0.05 | 97 | 995.2 |
| 20260508102933 | 9 | 23 | 8.0 | 25.7 | 0.00 | 0.03 | 0.03 | 97 | 995.0 |
| 20260508101914 | 9 | 338 | 8.0 | 27.4 | 0.00 | 0.03 | 0.03 | 97 | 994.9 |
| 20260508101407 | 9 | 23 | 12.9 | 27.4 | 0.00 | 0.03 | 0.03 | 97 | 994.9 |
| 20260508100854 | 9 | 23 | 11.3 | 24.1 | 0.00 | 0.03 | 0.03 | 97 | 994.7 |
| 20260508100344 | 9 | 23 | 14.5 | 32.2 | 0.00 | 0.03 | 0.03 | 97 | 994.8 |
| 20260508095832 | 9 | 45 | 6.4 | 32.2 | 0.00 | 0.03 | 0.03 | 97 | 994.9 |
| 20260508095323 | 9 | 338 | 11.3 | 29.0 | 0.00 | 0.03 | 0.03 | 97 | 994.9 |
| 20260508094813 | 9 | 23 | 8.0 | 25.7 | 0.00 | 0.03 | 0.03 | 97 | 995.0 |
| 20260508093751 | 10 | 45 | 12.9 | 24.1 | 0.00 | 0.03 | 0.03 | 98 | 994.6 |
| 20260508093242 | 10 | 23 | 12.9 | 24.1 | 0.00 | 0.03 | 0.03 | 98 | 994.6 |
| 20260508092731 | 10 | 68 | 14.5 | 25.7 | 0.00 | 0.03 | 0.03 | 98 | 994.8 |
| 20260508092223 | 10 | 23 | 12.9 | 25.7 | 0.03 | 0.03 | 0.03 | 97 | 994.6 |
| 20260508091712 | 10 | 45 | 6.4 | 27.4 | 0.03 | 0.03 | 0.03 | 97 | 994.6 |
| 20260508085631 | 10 | 315 | 11.3 | 27.4 | 0.03 | 0.03 | 0.03 | 98 | 994.6 |
| 20260508085121 | 10 | 0 | 6.4 | 29.0 | 0.03 | 0.03 | 0.03 | 98 | 994.5 |
| 20260508084616 | 10 | 45 | 12.9 | 29.0 | 0.03 | 0.03 | 0.03 | 98 | 994.6 |
| 20260508084104 | 10 | 45 | 12.9 | 25.7 | 0.03 | 0.03 | 0.03 | 98 | 994.6 |
| 20260508082530 | 10 | 0 | 12.9 | 32.2 | 0.00 | 0.00 | 0.03 | 97 | 994.9 |
| 20260508082021 | 10 | 23 | 6.4 | 32.2 | 0.00 | 0.00 | 0.00 | 97 | 995.0 |
| 20260508081513 | 10 | 23 | 8.0 | 24.1 | 0.00 | 0.00 | 0.00 | 97 | 995.0 |
| 20260508081000 | 10 | 45 | 9.7 | 27.4 | 0.00 | 0.00 | 0.00 | 97 | 994.9 |
| 20260508080450 | 10 | 68 | 16.1 | 27.4 | 0.00 | 0.00 | 0.00 | 97 | 994.8 |
| 20260508075429 | 10 | 23 | 8.0 | 20.9 | 0.00 | 0.00 | 0.00 | 96 | 994.8 |
| 20260508074920 | 10 | 68 | 6.4 | 25.7 | 0.00 | 0.00 | 0.00 | 96 | 995.1 |
| 20260508074409 | 10 | 23 | 12.9 | 32.2 | 0.00 | 0.00 | 0.00 | 96 | 994.9 |
| 20260508073859 | 10 | 23 | 6.4 | 32.2 | 0.00 | 0.00 | 0.00 | 96 | 995.1 |
| 20260508073347 | 10 | 68 | 12.9 | 0.0 | 0.00 | 0.00 | 0.00 | 96 | 995.0 |
| 20260508073150 | 10 | 338 | 8.0 | 0.0 | 0.00 | 0.00 | 0.00 | 96 | 994.9 |
| 20260508072710 | 10 | 68 | 6.4 | 22.5 | 0.00 | 0.05 | 0.00 | 97 | 995.0 |
| 20260508071647 | 10 | 68 | 6.4 | 22.5 | 0.00 | 0.05 | 0.00 | 97 | 995.2 |
| 20260508071135 | 10 | 23 | 8.0 | 27.4 | 0.00 | 0.05 | 0.00 | 97 | 995.1 |
| 20260508070625 | 10 | 23 | 12.9 | 29.0 | 0.00 | 0.05 | 0.00 | 97 | 995.1 |
| 20260508070115 | 10 | 45 | 17.7 | 29.0 | 0.00 | 0.05 | 0.00 | 97 | 995.0 |
| 20260508065605 | 10 | 0 | 11.3 | 22.5 | 0.00 | 0.05 | 0.00 | 98 | 995.1 |
| 20260508065054 | 10 | 23 | 8.0 | 22.5 | 0.00 | 0.05 | 0.00 | 98 | 995.0 |
| 20260508064544 | 10 | 68 | 6.4 | 20.9 | 0.00 | 0.05 | 0.00 | 98 | 995.1 |
| 20260508063524 | 10 | 23 | 9.7 | 22.5 | 0.00 | 0.05 | 0.00 | 98 | 995.3 |
| 20260508063015 | 10 | 23 | 6.4 | 20.9 | 0.00 | 0.05 | 0.00 | 98 | 995.3 |
| 20260508062504 | 10 | 90 | 4.8 | 17.7 | 0.00 | 0.05 | 0.00 | 97 | 995.6 |
| 20260508061954 | 10 | 68 | 6.4 | 17.7 | 0.00 | 0.05 | 0.00 | 97 | 995.6 |
| 20260508061444 | 10 | 0 | 9.7 | 17.7 | 0.00 | 0.05 | 0.00 | 97 | 995.8 |
| 20260508060934 | 10 | 338 | 3.2 | 14.5 | 0.00 | 0.05 | 0.00 | 98 | 995.8 |
| 20260508060423 | 10 | 0 | 4.8 | 17.7 | 0.00 | 0.05 | 0.00 | 97 | 996.0 |
| 20260508055408 | 10 | 23 | 6.4 | 17.7 | 0.00 | 0.05 | 0.00 | 97 | 996.1 |
| 20260508054343 | 10 | 0 | 0.0 | 17.7 | 0.00 | 0.05 | 0.00 | 97 | 996.1 |
| 20260508053833 | 10 | 45 | 3.2 | 11.3 | 0.00 | 0.05 | 0.00 | 97 | 996.1 |
| 20260508053323 | 10 | 315 | 4.8 | 17.7 | 0.00 | 0.05 | 0.00 | 97 | 996.4 |
| 20260508052813 | 10 | 23 | 3.2 | 17.7 | 0.00 | 0.05 | 0.00 | 97 | 996.4 |
| 20260508052306 | 10 | 315 | 4.8 | 17.7 | 0.00 | 0.05 | 0.00 | 97 | 996.2 |
| 20260508051753 | 10 | 23 | 3.2 | 9.7 | 0.00 | 0.05 | 0.00 | 97 | 996.3 |
| 20260508051242 | 10 | 45 | 1.6 | 11.3 | 0.00 | 0.05 | 0.00 | 97 | 996.3 |
| 20260508050733 | 10 | 270 | 1.6 | 12.9 | 0.00 | 0.05 | 0.00 | 97 | 996.2 |
| 20260508050222 | 10 | 0 | 1.6 | 17.7 | 0.00 | 0.05 | 0.00 | 97 | 996.4 |
| 20260508045712 | 10 | 0 | 3.2 | 20.9 | 0.00 | 0.05 | 0.00 | 97 | 996.2 |
| 20260508045202 | 10 | 23 | 9.7 | 22.5 | 0.00 | 0.05 | 0.00 | 97 | 996.2 |
| 20260508044652 | 10 | 45 | 6.4 | 22.5 | 0.00 | 0.05 | 0.00 | 97 | 996.3 |
| 20260508044143 | 10 | 45 | 6.4 | 17.7 | 0.00 | 0.05 | 0.00 | 97 | 996.3 |
| 20260508043631 | 10 | 0 | 8.0 | 22.5 | 0.00 | 0.05 | 0.00 | 97 | 996.3 |
| 20260508042616 | 10 | 90 | 8.0 | 33.8 | 0.00 | 0.05 | 0.00 | 98 | 996.4 |
| 20260508042104 | 10 | 68 | 6.4 | 33.8 | 0.00 | 0.05 | 0.00 | 98 | 996.4 |
| 20260508041553 | 10 | 338 | 8.0 | 25.7 | 0.00 | 0.05 | 0.00 | 98 | 996.4 |
| 20260508041042 | 10 | 68 | 11.3 | 25.7 | 0.00 | 0.05 | 0.00 | 98 | 996.5 |
| 20260508040537 | 10 | 23 | 12.9 | 25.7 | 0.00 | 0.05 | 0.00 | 98 | 996.6 |
| 20260508035000 | 10 | 0 | 11.3 | 24.1 | 0.00 | 0.05 | 0.00 | 98 | 996.7 |
| 20260508034451 | 10 | 68 | 8.0 | 25.7 | 0.00 | 0.05 | 0.00 | 98 | 996.8 |
| 20260508033940 | 10 | 23 | 6.4 | 25.7 | 0.00 | 0.05 | 0.00 | 98 | 997.0 |
| 20260508032410 | 10 | 68 | 11.3 | 24.1 | 0.00 | 0.05 | 0.00 | 99 | 997.1 |
| 20260508031900 | 10 | 0 | 6.4 | 24.1 | 0.00 | 0.05 | 0.00 | 99 | 997.0 |
| 20260508031349 | 10 | 23 | 12.9 | 24.1 | 0.00 | 0.05 | 0.00 | 99 | 997.3 |
| 20260508030330 | 10 | 68 | 9.7 | 25.7 | 0.00 | 0.05 | 0.00 | 99 | 997.5 |
| 20260508024801 | 10 | 68 | 12.9 | 24.1 | 0.03 | 0.05 | 1.50 | 99 | 997.6 |
| 20260508024249 | 11 | 338 | 11.3 | 22.5 | 0.03 | 0.05 | 1.50 | 99 | 997.7 |
| 20260508023739 | 11 | 23 | 11.3 | 22.5 | 0.03 | 0.05 | 1.50 | 99 | 997.7 |
| 20260508022720 | 11 | 68 | 8.0 | 25.7 | 0.03 | 0.05 | 1.50 | 99 | 997.3 |
| 20260508022206 | 11 | 338 | 12.9 | 24.1 | 0.03 | 0.05 | 1.50 | 99 | 997.4 |
| 20260508021656 | 11 | 0 | 6.4 | 24.1 | 0.03 | 0.05 | 1.50 | 99 | 997.6 |
| 20260508020636 | 11 | 45 | 6.4 | 29.0 | 0.03 | 0.05 | 1.50 | 99 | 997.6 |
| 20260508020126 | 11 | 45 | 8.0 | 29.0 | 0.03 | 0.05 | 1.50 | 99 | 997.5 |
| 20260508015615 | 11 | 315 | 11.3 | 22.5 | 0.03 | 0.05 | 1.50 | 99 | 997.6 |
| 20260508015105 | 11 | 293 | 12.9 | 22.5 | 0.00 | 0.03 | 1.47 | 99 | 997.6 |
| 20260508014556 | 11 | 0 | 4.8 | 17.7 | 0.00 | 0.03 | 1.47 | 99 | 997.7 |
| 20260508014044 | 11 | 315 | 8.0 | 17.7 | 0.00 | 0.03 | 1.47 | 99 | 998.0 |
| 20260508013534 | 11 | 90 | 6.4 | 12.9 | 0.00 | 0.03 | 1.47 | 99 | 998.0 |
| 20260508013024 | 11 | 45 | 4.8 | 14.5 | 0.00 | 0.03 | 1.47 | 99 | 998.2 |
| 20260508012519 | 12 | 0 | 4.8 | 14.5 | 0.00 | 0.03 | 1.47 | 99 | 998.4 |
| 20260508012006 | 12 | 45 | 4.8 | 14.5 | 0.00 | 0.03 | 1.47 | 99 | 998.4 |
| 20260508011456 | 12 | 45 | 3.2 | 14.5 | 0.00 | 0.03 | 1.47 | 99 | 998.2 |
| 20260508010944 | 12 | 23 | 4.8 | 14.5 | 0.00 | 0.03 | 1.47 | 99 | 998.5 |
| 20260508010433 | 12 | 0 | 3.2 | 14.5 | 0.00 | 0.03 | 1.47 | 99 | 998.5 |
| 20260508005923 | 12 | 45 | 3.2 | 14.5 | 0.00 | 0.03 | 1.47 | 99 | 998.6 |
| 20260508005414 | 12 | 68 | 1.6 | 14.5 | 0.00 | 0.03 | 1.47 | 99 | 998.6 |
| 20260508004409 | 12 | 338 | 3.2 | 11.3 | 0.00 | 0.03 | 1.47 | 98 | 998.7 |
| 20260508003843 | 12 | 45 | 1.6 | 11.3 | 0.00 | 0.03 | 1.47 | 98 | 998.9 |
| 20260508003333 | 12 | 338 | 0.0 | 9.7 | 0.03 | 0.03 | 1.47 | 98 | 999.0 |
| 20260508001803 | 12 | 23 | 4.8 | 17.7 | 0.03 | 0.03 | 1.47 | 98 | 998.8 |
| 20260508001252 | 12 | 45 | 6.4 | 17.7 | 0.03 | 0.03 | 1.47 | 98 | 998.9 |
| 20260508000234 | 12 | 23 | 4.8 | 14.5 | 0.03 | 0.03 | 1.47 | 98 | 998.8 |
| 20260507235723 | 12 | 338 | 4.8 | 17.7 | 0.03 | 0.03 | 1.47 | 98 | 998.9 |
| 20260507234704 | 12 | 0 | 4.8 | 17.7 | 0.03 | 0.03 | 1.47 | 98 | 998.8 |
| 20260507234151 | 12 | 45 | 4.8 | 11.3 | 0.03 | 0.03 | 1.47 | 97 | 998.7 |
| 20260507233642 | 13 | 23 | 3.2 | 6.4 | 0.03 | 0.03 | 1.47 | 98 | 998.6 |
| 20260507233132 | 12 | 23 | 1.6 | 3.2 | 0.00 | 0.00 | 1.45 | 97 | 998.7 |
| 20260507232622 | 12 | 23 | 0.0 | 0.0 | 0.00 | 0.00 | 1.45 | 97 | 998.7 |
| 20260507232116 | 12 | 0 | 0.0 | 0.0 | 0.00 | 0.00 | 1.45 | 97 | 998.6 |
| 20260507231605 | 12 | 23 | 0.0 | 0.0 | 0.00 | 0.00 | 1.45 | 97 | 998.8 |
| 20260507231054 | 12 | 23 | 0.0 | 6.4 | 0.00 | 0.00 | 1.45 | 97 | 998.8 |
| 20260507230549 | 12 | 45 | 0.0 | 6.4 | 0.00 | 0.00 | 1.45 | 97 | 998.2 |
| 20260507230035 | 12 | 0 | 0.0 | 3.2 | 0.00 | 0.00 | 1.45 | 97 | 998.5 |
| 20260507225525 | 12 | 338 | 0.0 | 0.0 | 0.00 | 0.00 | 1.45 | 97 | 998.5 |
| 20260507225014 | 12 | 338 | 0.0 | 0.0 | 0.00 | 0.00 | 1.45 | 97 | 998.6 |
| 20260507224504 | 12 | 45 | 0.0 | 6.4 | 0.00 | 0.00 | 1.45 | 97 | 998.6 |
| 20260507223953 | 12 | 23 | 0.0 | 6.4 | 0.00 | 0.00 | 1.45 | 97 | 998.2 |
| 20260507223445 | 12 | 0 | 0.0 | 6.4 | 0.00 | 0.00 | 1.45 | 97 | 998.1 |
| 20260507222428 | 12 | 23 | 0.0 | 9.7 | 0.00 | 0.00 | 1.45 | 96 | 998.1 |
| 20260507221915 | 12 | 338 | 3.2 | 9.7 | 0.00 | 0.00 | 1.45 | 96 | 998.0 |
| 20260507221405 | 12 | 23 | 3.2 | 9.7 | 0.00 | 0.00 | 1.45 | 96 | 997.9 |
| 20260507220853 | 12 | 338 | 3.2 | 9.7 | 0.00 | 0.00 | 1.45 | 96 | 998.0 |
| 20260507220343 | 12 | 338 | 0.0 | 6.4 | 0.00 | 0.00 | 1.45 | 96 | 998.1 |
| 20260507215833 | 13 | 338 | 0.0 | 9.7 | 0.00 | 0.00 | 1.45 | 96 | 998.2 |
| 20260507215323 | 13 | 23 | 4.8 | 9.7 | 0.00 | 0.00 | 1.45 | 96 | 998.0 |
| 20260507214302 | 13 | 0 | 1.6 | 6.4 | 0.00 | 0.00 | 1.45 | 96 | 998.5 |
| 20260507213242 | 13 | 338 | 4.8 | 9.7 | 0.00 | 0.00 | 1.45 | 95 | 997.5 |
| 20260507212733 | 13 | 0 | 0.0 | 6.4 | 0.00 | 0.00 | 1.45 | 95 | 997.4 |
| 20260507212222 | 13 | 0 | 0.0 | 6.4 | 0.00 | 0.00 | 1.45 | 95 | 997.3 |
| 20260507211713 | 13 | 0 | 0.0 | 9.7 | 0.00 | 0.00 | 1.45 | 95 | 997.0 |
| 20260507211202 | 13 | 23 | 3.2 | 14.5 | 0.00 | 0.00 | 1.45 | 95 | 996.7 |
| 20260507210652 | 13 | 0 | 6.4 | 14.5 | 0.00 | 0.00 | 1.45 | 94 | 996.7 |
| 20260507210142 | 13 | 0 | 4.8 | 9.7 | 0.00 | 0.00 | 1.45 | 94 | 996.7 |
| 20260507205631 | 13 | 23 | 6.4 | 11.3 | 0.00 | 0.00 | 1.45 | 94 | 997.2 |
| 20260507205127 | 13 | 0 | 6.4 | 11.3 | 0.00 | 0.00 | 1.45 | 94 | 997.4 |
| 20260507204613 | 13 | 23 | 3.2 | 11.3 | 0.00 | 0.00 | 1.45 | 93 | 997.7 |
| 20260507203551 | 13 | 0 | 4.8 | 11.3 | 0.00 | 0.00 | 1.45 | 93 | 998.2 |
| 20260507203041 | 14 | 338 | 6.4 | 11.3 | 0.00 | 0.00 | 1.45 | 93 | 998.7 |
| 20260507202531 | 14 | 0 | 3.2 | 9.7 | 0.00 | 0.00 | 1.45 | 92 | 998.6 |
| 20260507202021 | 14 | 270 | 0.0 | 9.7 | 0.00 | 0.00 | 1.45 | 92 | 999.0 |
| 20260507201517 | 14 | 0 | 3.2 | 9.7 | 0.00 | 0.00 | 1.45 | 91 | 998.9 |
| 20260507201001 | 14 | 0 | 1.6 | 9.7 | 0.00 | 0.00 | 1.45 | 90 | 999.0 |
| 20260507200451 | 15 | 338 | 3.2 | 12.9 | 0.00 | 0.00 | 1.45 | 89 | 999.1 |
| 20260507195941 | 15 | 23 | 3.2 | 12.9 | 0.00 | 0.00 | 1.45 | 89 | 999.3 |
| 20260507195431 | 15 | 0 | 3.2 | 12.9 | 0.00 | 0.00 | 1.45 | 88 | 999.3 |
| 20260507194921 | 15 | 45 | 6.4 | 12.9 | 0.00 | 0.00 | 1.45 | 89 | 999.6 |
| 20260507194410 | 15 | 45 | 4.8 | 11.3 | 0.00 | 0.00 | 1.45 | 90 | 999.6 |
| 20260507193351 | 15 | 338 | 6.4 | 14.5 | 0.00 | 0.00 | 1.45 | 90 | 999.6 |
| 20260507192840 | 15 | 338 | 4.8 | 14.5 | 0.00 | 0.00 | 1.45 | 90 | 999.5 |
| 20260507192334 | 15 | 0 | 3.2 | 14.5 | 0.00 | 0.00 | 1.45 | 90 | 999.5 |
| 20260507191313 | 15 | 338 | 6.4 | 12.9 | 0.00 | 0.00 | 1.45 | 93 | 999.7 |
| 20260507190800 | 15 | 68 | 6.4 | 9.7 | 0.00 | 0.00 | 1.45 | 94 | 999.6 |
| 20260507190249 | 14 | 338 | 3.2 | 9.7 | 0.00 | 0.00 | 1.45 | 95 | 999.6 |
| 20260507185740 | 15 | 315 | 3.2 | 9.7 | 0.00 | 0.00 | 1.45 | 95 | 999.6 |
| 20260507185229 | 15 | 0 | 3.2 | 6.4 | 0.00 | 0.00 | 1.45 | 95 | 999.7 |
| 20260507184719 | 14 | 23 | 1.6 | 11.3 | 0.00 | 0.00 | 1.45 | 95 | 999.6 |
| 20260507184209 | 15 | 23 | 4.8 | 11.3 | 0.00 | 0.00 | 1.45 | 93 | 999.6 |
| 20260507183659 | 16 | 0 | 6.4 | 17.7 | 0.00 | 0.00 | 1.45 | 90 | 999.7 |
| 20260507183148 | 16 | 315 | 6.4 | 17.7 | 0.00 | 0.00 | 1.45 | 89 | 999.5 |
| 20260507182639 | 15 | 0 | 1.6 | 11.3 | 0.00 | 0.00 | 1.45 | 90 | 999.6 |
| 20260507182125 | 15 | 45 | 1.6 | 11.3 | 0.00 | 0.00 | 1.45 | 90 | 999.3 |
| 20260507181615 | 15 | 0 | 6.4 | 11.3 | 0.00 | 0.00 | 1.45 | 90 | 999.3 |
| 20260507181104 | 16 | 23 | 3.2 | 11.3 | 0.00 | 0.00 | 1.45 | 90 | 999.0 |
| 20260507180558 | 16 | 45 | 3.2 | 11.3 | 0.00 | 0.00 | 1.45 | 91 | 998.9 |
| 20260507180048 | 16 | 338 | 3.2 | 11.3 | 0.00 | 0.00 | 1.45 | 91 | 999.0 |
| 20260507175538 | 16 | 338 | 4.8 | 11.3 | 0.00 | 0.00 | 1.45 | 90 | 999.2 |
| 20260507175032 | 16 | 0 | 4.8 | 11.3 | 0.00 | 0.00 | 1.45 | 89 | 999.5 |
| 20260507174519 | 16 | 23 | 4.8 | 11.3 | 0.00 | 0.00 | 1.45 | 91 | 999.5 |
| 20260507174009 | 16 | 23 | 3.2 | 11.3 | 0.00 | 0.00 | 1.45 | 92 | 999.4 |
| 20260507173458 | 15 | 315 | 6.4 | 11.3 | 0.00 | 0.00 | 1.45 | 91 | 999.4 |
| 20260507172946 | 15 | 338 | 1.6 | 12.9 | 0.00 | 0.00 | 1.45 | 91 | 999.2 |
| 20260507172436 | 16 | 0 | 4.8 | 12.9 | 0.00 | 0.00 | 1.45 | 89 | 999.1 |
| 20260507171926 | 16 | 338 | 4.8 | 9.7 | 0.00 | 0.00 | 1.45 | 88 | 999.0 |
| 20260507171417 | 16 | 45 | 3.2 | 12.9 | 0.00 | 0.00 | 1.45 | 88 | 998.8 |
| 20260507170907 | 16 | 338 | 4.8 | 12.9 | 0.00 | 0.00 | 1.45 | 90 | 998.5 |
| 20260507170357 | 15 | 0 | 4.8 | 9.7 | 0.00 | 0.00 | 1.45 | 92 | 998.6 |
| 20260507165846 | 15 | 338 | 3.2 | 9.7 | 0.00 | 0.00 | 1.45 | 93 | 998.6 |